Airport Name : Pajala

Other Name : Pajala

ICAO : ESUP

IATA :

FAA :

Latitude : 67.245639

Longitude : 23.068911

Country : Sweden

Local Date and Time : 5/19/2019 9:09:00 AM

 

TAF (Terminal Aerodrome Forecast)

 

METAR (METeorological Aerodrome Report)

ESUP 190650Z AUTO 09006KT 050V140 //// R11///// NCD 14/// Q1018

ESUP 190620Z AUTO 08007KT 040V120 //// R11///// NCD 14/04 Q1018

ESUP 190550Z AUTO 09006KT 070V130 //// R11///// NCD 13/04 Q1018

ESUP 190520Z AUTO 08006KT //// R11///// NCD 12/03 Q1018

ESUP 190450Z AUTO 08007KT 050V120 //// R11///// NCD 12/03 Q1018

ESUP 190420Z AUTO 07006KT //// R11///// NCD 11/03 Q1018

ESUP 190350Z AUTO 08006KT //// R11///// NCD 11/// Q1018

ESUP 190320Z AUTO 08005KT 050V120 //// R11///// NCD ///// Q1018